KCON/CON METAR and TAF weather

Enter ICAO airport designator
Station Type Date Time Source
KCON METAR 2018/07/21 03:51 UTC NOAA

KCON 210351Z AUTO 00000KT 10SM CLR 18/13 A3016 RMK AO2 SLP213 T01780133


Station Type Date Time Source
KCON Decoded METAR 2018/07/21 03:51 UTC NOAA

Concord, Concord Municipal Airport, NH, United States (KCON) 43-11-43N 071-30-04W 103M
Jul 20, 2018 - 11:51 PM EDT / 2018.07.21 0351 UTC
Wind: Calm:0
Visibility: 10 mile(s):0
Sky conditions: clear
Temperature: 64.0 F (17.8 C)
Dew Point: 55.9 F (13.3 C)
Relative Humidity: 74%
Pressure (altimeter): 30.16 in. Hg (1021 hPa)
ob: KCON 210351Z AUTO 00000KT 10SM CLR 18/13 A3016 RMK AO2 SLP213 T01780133
cycle: 4

Station Type Date Time Source
KCON TAF 2018/07/20 18:22 UTC NOAA

TAF KCON 201720Z 2018/2118 VRB03KT P6SM SKC
FM210900 00000KT 4SM BR SKC
FM211200 09004KT P6SM SCT250


Example: see airport list